Edina, MN (55435)

11:25 AM CDT on August 29, 2016 (GMT -0500)
Cornelia | | Change Station

Elev 860 ft 44.87 °N, 93.34 °W | Updated 3 seconds ago

Mostly Cloudy
Mostly Cloudy
80.2 °F
Feels Like 83 °F
N
2.9
Wind Variable Wind from ESE
Gusts 4.9 mph

Today
High -- | Low -- °F
--% Chance of Precip.
Yesterday
High -- | Low -- °F
Precip. -- in
Pressure 30.21 in
Visibility 10.0 miles
Clouds Few 1700 ft
Mostly Cloudy 25000 ft
Heat Index 83 °F
Dew Point 70 °F
Humidity 71%
Rainfall 0.00 in
Snow Depth Not available.
6:32 AM 7:54 PM
Waning Crescent, 8% visible
METAR KMSP 291553Z 11008KT 10SM FEW017 BKN250 26/21 A3022 RMK AO2 SLP230 T02560206
Pressure 30.21 in
Visibility 10.0 miles
Clouds Few 1700 ft
Mostly Cloudy 25000 ft
Heat Index 83 °F
Dew Point 70 °F
Humidity 71%
Rainfall 0.00 in
Snow Depth Not available.
6:32 AM 7:54 PM
Waning Crescent, 8% visible
METAR KMSP 291553Z 11008KT 10SM FEW017 BKN250 26/21 A3022 RMK AO2 SLP230 T02560206

10-Day Weather Forecast

Almanac

Astronomy

Aug. 29, 2016 Rise Set
Actual Time
Civil Twilight
Nautical Twilight
Astronomical Twilight
Moon
Length of Visible Light
Length of Day
Tomorrow will be .
, % of the Moon is Illuminated

Today's Extremes

State Highs State Lows

Community

WunderPhotos

Upload Photos

1,935,867 photos uploaded!

WunderBlog® & News

Nearby

Air Quality

  Air Quality AQ Index Pollutant
Not available.

Snow Depth

Station Depth Elevation

Earthquake Activity

City Distance Mag. Time & Date
Minimum magnitude displayed is 2.5.

Coastal Water Temperatures

Place Temperature

Stations

Nearby Weather Stations

Station Location Temp. Windchill Dew Point Humidity Wind Precip. Elev Updated Type
                   

Watches & Warnings

There are currently no watches in effect.